Time;durP1;ratioP1;P1;durP2;ratioP2;P2;SDS_P1;SDS_P2;PMS_P1;PMS_P2;Temp;Humidity;BMP_temperature;BMP_pressure;BME280_temperature;BME280_humidity;BME280_pressure;Samples;Min_cycle;Max_cycle;Signal;HPM_P1;HPM_P2
2020/12/29 00:01:49;;;;;;;5.47;4.28;;;;;;;8.05;80.41;97032.72;2806299;83;21710;-63
2020/12/29 00:05:52;;;;;;;;;;;;;;;8.09;80.31;97027.38;2808629;83;21121;-64
2020/12/29 00:09:55;;;;;;;5.92;4.15;;;;;;;8.07;80.62;97024.11;2814617;83;20465;-63
2020/12/29 00:13:58;;;;;;;9.70;5.83;;;;;;;8.10;80.46;97010.48;2808953;83;21569;-63
2020/12/29 00:18:01;;;;;;;15.40;8.25;;;;;;;8.15;80.44;97031.07;2813587;83;21539;-64
2020/12/29 00:22:04;;;;;;;18.95;13.10;;;;;;;8.23;80.45;97012.91;2808430;83;21168;-64
2020/12/29 00:26:07;;;;;;;9.05;6.83;;;;;;;8.32;80.11;97016.24;2801266;83;21631;-63
2020/12/29 00:30:10;;;;;;;6.53;4.40;;;;;;;8.38;79.85;97012.84;2830510;83;21133;-63
2020/12/29 00:34:13;;;;;;;7.08;4.65;;;;;;;8.44;79.83;97007.57;2813027;83;21185;-62
2020/12/29 00:38:16;;;;;;;5.62;4.70;;;;;;;8.53;79.74;97004.83;2812803;82;21137;-62
2020/12/29 00:42:19;;;;;;;7.40;6.65;;;;;;;8.70;79.87;97002.19;2840725;83;21173;-63
2020/12/29 00:46:22;;;;;;;7.92;4.55;;;;;;;8.88;78.86;97014.61;2860996;83;21129;-63
2020/12/29 00:50:25;;;;;;;5.10;3.83;;;;;;;8.96;77.92;97017.12;2864332;82;21172;-63
2020/12/29 00:54:28;;;;;;;6.92;4.62;;;;;;;8.96;77.50;97019.25;2844556;83;21156;-63
2020/12/29 00:58:31;;;;;;;6.62;5.25;;;;;;;8.96;77.33;97018.45;2850305;83;21139;-63
2020/12/29 01:02:36;;;;;;;8.33;4.08;;;;;;;8.98;77.13;97031.80;2855235;83;21164;-65
2020/12/29 01:06:42;;;;;;;8.50;5.28;;;;;;;8.99;76.90;97032.11;2837507;83;21614;-63
2020/12/29 01:10:46;;;;;;;;;;;;;;;9.00;76.89;97028.44;2866930;83;21164;-64
2020/12/29 01:14:49;;;;;;;9.58;5.55;;;;;;;9.00;76.84;97027.11;2852884;83;20168;-63
2020/12/29 01:18:56;;;;;;;9.50;5.47;;;;;;;9.00;76.93;97018.36;2828528;83;21639;-63
2020/12/29 01:22:59;;;;;;;8.93;5.42;;;;;;;8.98;76.87;97018.55;2834150;83;21488;-65
2020/12/29 01:27:02;;;;;;;6.17;5.03;;;;;;;8.83;77.04;97016.52;2840935;83;21173;-63
2020/12/29 01:31:05;;;;;;;17.87;11.12;;;;;;;8.70;77.56;97011.46;2833306;83;21169;-65
2020/12/29 01:35:08;;;;;;;26.42;14.90;;;;;;;8.63;77.97;97015.88;2856081;83;21147;-63
2020/12/29 01:39:12;;;;;;;8.95;5.67;;;;;;;8.61;78.29;97021.88;2844644;82;21169;-64
2020/12/29 01:43:15;;;;;;;7.55;5.47;;;;;;;8.62;78.38;97020.87;2801679;83;21169;-63
2020/12/29 01:47:18;;;;;;;13.22;6.87;;;;;;;8.64;78.36;97026.79;2810101;83;21185;-64
2020/12/29 01:51:23;;;;;;;29.07;16.30;;;;;;;8.64;78.27;97027.31;2812807;84;21166;-62
2020/12/29 01:55:27;;;;;;;25.75;14.20;;;;;;;8.61;78.40;97027.70;2821006;84;21133;-62
2020/12/29 01:59:31;;;;;;;14.25;9.40;;;;;;;8.65;78.56;97033.76;2821309;84;21149;-66
2020/12/29 02:03:34;;;;;;;7.45;6.58;;;;;;;8.62;78.47;97030.66;2809703;83;21129;-63
2020/12/29 02:07:38;;;;;;;6.70;5.65;;;;;;;8.69;78.50;97032.35;2792855;84;21153;-63
2020/12/29 02:11:41;;;;;;;5.80;4.28;;;;;;;8.76;78.51;97028.91;2821254;83;21615;-63
2020/12/29 02:15:44;;;;;;;5.78;5.20;;;;;;;8.84;78.35;97036.70;2810291;83;21165;-62
2020/12/29 02:19:48;;;;;;;6.55;5.40;;;;;;;8.96;78.34;97023.75;2793025;83;21173;-62
2020/12/29 02:23:51;;;;;;;20.27;12.28;;;;;;;8.96;77.30;97003.34;2821305;84;21153;-62
2020/12/29 02:27:55;;;;;;;13.93;9.18;;;;;;;8.78;77.30;97017.12;2820052;84;21169;-63
2020/12/29 02:32:00;;;;;;;12.80;7.60;;;;;;;8.59;77.79;97008.02;2821145;84;21145;-62
2020/12/29 02:36:03;;;;;;;11.85;5.65;;;;;;;8.42;78.41;97000.33;2812645;83;21631;-63
2020/12/29 02:40:06;;;;;;;7.62;6.05;;;;;;;8.38;78.77;97005.70;2805503;84;21141;-62
2020/12/29 02:44:15;;;;;;;6.17;5.37;;;;;;;8.38;78.81;97007.03;2797295;84;21531;-60
2020/12/29 02:48:18;;;;;;;5.67;5.12;;;;;;;8.36;78.65;97011.70;2801438;84;21145;-62
2020/12/29 02:52:21;;;;;;;8.23;6.40;;;;;;;8.37;78.64;97025.25;2821163;83;21173;-62
2020/12/29 02:56:24;;;;;;;5.67;4.45;;;;;;;8.39;78.63;97017.12;2821465;84;21145;-63
2020/12/29 03:00:28;;;;;;;12.37;5.75;;;;;;;8.42;78.41;97022.04;2821651;83;21146;-65
2020/12/29 03:04:31;;;;;;;7.03;5.58;;;;;;;8.46;78.05;97011.89;2821413;84;21825;-64
2020/12/29 03:08:35;;;;;;;8.23;6.25;;;;;;;8.43;77.89;97024.48;2821601;84;21121;-64
2020/12/29 03:12:41;;;;;;;6.15;5.17;;;;;;;8.38;77.70;97016.30;2821814;84;21193;-62
2020/12/29 03:16:45;;;;;;;7.03;6.33;;;;;;;8.38;77.74;97016.30;2821426;84;21137;-63
2020/12/29 03:20:49;;;;;;;6.08;5.45;;;;;;;8.38;78.01;97028.22;2820275;84;21148;-63
2020/12/29 03:24:53;;;;;;;6.72;6.10;;;;;;;8.45;77.78;97021.65;2821926;84;21161;-63
2020/12/29 03:28:56;;;;;;;11.15;7.95;;;;;;;8.46;77.26;97014.54;2821486;84;22244;-62
2020/12/29 03:32:59;;;;;;;7.03;6.17;;;;;;;8.47;77.83;97022.80;2821657;84;21721;-64
2020/12/29 03:37:02;;;;;;;9.13;7.37;;;;;;;8.46;77.37;97020.64;2821479;83;21173;-63
2020/12/29 03:41:04;;;;;;;9.03;8.13;;;;;;;8.38;77.34;97020.80;2828484;83;21200;-64
2020/12/29 03:45:08;;;;;;;9.35;7.83;;;;;;;8.35;77.64;97042.34;2865379;83;21177;-63
2020/12/29 03:49:11;;;;;;;9.53;7.75;;;;;;;8.28;77.62;97062.17;2865335;83;21128;-64
2020/12/29 03:53:14;;;;;;;10.38;7.58;;;;;;;8.28;77.72;97063.49;2865243;83;21137;-62
2020/12/29 03:57:17;;;;;;;9.68;8.58;;;;;;;8.29;77.71;97059.31;2843809;83;21193;-62
2020/12/29 04:01:20;;;;;;;9.38;8.20;;;;;;;8.34;77.65;97074.64;2848092;83;21169;-63
2020/12/29 04:05:23;;;;;;;9.75;7.40;;;;;;;8.33;77.36;97074.33;2838903;83;21165;-62
2020/12/29 04:09:31;;;;;;;9.93;7.55;;;;;;;8.30;77.39;97065.44;2814377;84;21177;-63
2020/12/29 04:13:34;;;;;;;12.05;9.35;;;;;;;8.32;77.31;97067.39;2863110;83;21156;-62
2020/12/29 04:17:40;;;;;;;14.07;11.43;;;;;;;8.25;77.09;97075.77;2865070;83;21161;-63
2020/12/29 04:21:42;;;;;;;11.73;8.18;;;;;;;8.21;77.22;97085.10;2865037;83;21129;-62
2020/12/29 04:25:46;;;;;;;12.88;9.15;;;;;;;8.21;77.22;97081.97;2864957;83;21599;-63
2020/12/29 04:29:50;;;;;;;14.43;10.82;;;;;;;8.31;76.93;97076.34;2865001;83;21137;-63
2020/12/29 04:33:53;;;;;;;14.07;9.60;;;;;;;8.36;76.58;97089.03;2864975;83;21180;-61
2020/12/29 04:37:56;;;;;;;12.68;8.23;;;;;;;8.39;75.88;97084.67;2865210;81;21190;-62
2020/12/29 04:42:12;;;;;;;9.00;7.60;;;;;;;8.18;75.72;97085.48;2865009;83;21184;-62
2020/12/29 04:46:26;;;;;;;11.22;8.63;;;;;;;8.07;76.90;97088.97;3108774;76;22848;-61
2020/12/29 04:50:31;;;;;;;11.68;8.90;;;;;;;7.98;76.37;97080.33;3033211;77;21152;-61
2020/12/29 04:54:37;;;;;;;13.35;8.60;;;;;;;7.91;76.51;97083.39;3060746;77;21113;-63
2020/12/29 04:58:41;;;;;;;10.85;8.40;;;;;;;7.97;76.91;97081.83;3050589;77;21124;-61
2020/12/29 05:02:46;;;;;;;14.35;9.43;;;;;;;8.03;76.36;97089.00;3018226;77;21141;-63
2020/12/29 05:06:51;;;;;;;10.45;9.13;;;;;;;8.04;75.76;97095.94;3035797;77;21152;-63
2020/12/29 05:10:54;;;;;;;8.98;7.50;;;;;;;8.02;75.30;97105.89;3038305;76;21523;-63
2020/12/29 05:14:57;;;;;;;15.68;9.15;;;;;;;7.93;74.81;97113.65;3060461;77;21121;-64
2020/12/29 05:19:00;;;;;;;15.32;12.35;;;;;;;7.75;74.99;97126.78;3057151;77;21120;-64
2020/12/29 05:23:04;;;;;;;17.57;12.47;;;;;;;7.50;75.58;97129.74;2918795;79;21156;-65
2020/12/29 05:27:07;;;;;;;14.05;10.48;;;;;;;7.44;76.31;97147.64;2927557;80;21105;-65
2020/12/29 05:31:10;;;;;;;19.40;12.20;;;;;;;7.41;76.31;97158.11;2912328;80;21156;-64
2020/12/29 05:35:15;;;;;;;17.65;13.38;;;;;;;7.38;76.48;97170.86;2930746;79;21164;-64
2020/12/29 05:39:21;;;;;;;21.93;14.38;;;;;;;7.33;75.99;97171.92;2881393;82;21152;-62
2020/12/29 05:43:33;;;;;;;16.60;10.88;;;;;;;7.19;75.95;97173.55;2880509;82;21599;-63
2020/12/29 05:47:35;;;;;;;12.63;10.40;;;;;;;7.03;75.78;97179.31;2881136;82;21141;-64
2020/12/29 05:51:41;;;;;;;15.20;9.78;;;;;;;6.92;76.05;97206.16;2881202;82;21132;-63
2020/12/29 05:55:46;;;;;;;15.93;10.13;;;;;;;6.89;76.21;97215.77;2880559;82;21180;-62
2020/12/29 05:59:50;;;;;;;15.05;11.18;;;;;;;6.86;76.18;97232.30;2880220;82;21614;-63
2020/12/29 06:03:53;;;;;;;10.70;7.50;;;;;;;6.87;76.11;97245.00;2899783;82;21137;-64
2020/12/29 06:07:59;;;;;;;9.75;7.97;;;;;;;6.88;76.05;97254.59;2945029;80;21100;-64
2020/12/29 06:12:06;;;;;;;13.13;8.70;;;;;;;6.92;75.79;97253.23;2945113;80;21128;-64
2020/12/29 06:16:11;;;;;;;13.22;9.60;;;;;;;6.90;75.36;97264.48;2900279;82;21157;-63
2020/12/29 06:20:17;;;;;;;10.00;7.35;;;;;;;6.76;74.88;97266.05;2944656;80;21543;-63
2020/12/29 06:24:20;;;;;;;13.72;9.18;;;;;;;6.67;75.08;97279.81;2936104;79;21151;-63
2020/12/29 06:28:28;;;;;;;12.37;8.10;;;;;;;6.69;75.12;97285.77;2903765;80;21121;-63
2020/12/29 06:32:34;;;;;;;9.63;7.20;;;;;;;6.64;75.05;97292.56;2870431;82;21635;-63
2020/12/29 06:36:40;;;;;;;11.93;8.73;;;;;;;6.64;74.92;97302.61;2900077;82;21644;-63
2020/12/29 06:40:45;;;;;;;11.67;8.40;;;;;;;6.61;74.70;97316.17;2894044;82;21183;-62
2020/12/29 06:44:57;;;;;;;24.18;14.60;;;;;;;6.49;74.64;97336.06;2846726;83;21594;-63
2020/12/29 06:49:20;;;;;;;19.90;13.48;;;;;;;6.41;74.94;97344.33;2894246;80;21141;-62
2020/12/29 06:53:23;;;;;;;22.67;13.88;;;;;;;6.43;75.31;97354.73;2900239;82;21180;-62
2020/12/29 06:57:47;;;;;;;21.45;15.60;;;;;;;6.59;75.38;97356.46;2900490;82;21172;-65
2020/12/29 07:01:50;;;;;;;31.05;18.65;;;;;;;6.74;74.81;97363.66;2900480;82;21161;-64
2020/12/29 07:05:56;;;;;;;30.30;16.50;;;;;;;6.77;74.06;97381.81;2899850;82;21165;-64
2020/12/29 07:10:02;;;;;;;;;;;;;;;6.76;73.84;97396.82;2902744;82;21125;-62
2020/12/29 07:14:06;;;;;;;88.87;61.20;;;;;;;6.51;73.55;97404.86;2898973;82;20156;-62
2020/12/29 07:18:10;;;;;;;81.60;60.73;;;;;;;6.23;74.76;97411.05;2900198;82;21136;-63
2020/12/29 07:22:19;;;;;;;60.50;40.60;;;;;;;6.22;75.70;97417.32;2900267;82;21153;-63
2020/12/29 07:26:23;;;;;;;21.82;19.52;;;;;;;6.28;75.64;97428.52;2899939;82;21161;-63
2020/12/29 07:30:28;;;;;;;20.60;16.12;;;;;;;6.36;75.34;97433.80;2900862;80;21137;-63
2020/12/29 07:34:34;;;;;;;17.23;12.98;;;;;;;6.38;75.07;97441.53;2899937;82;21152;-63
2020/12/29 07:38:39;;;;;;;72.72;49.67;;;;;;;6.28;74.94;97456.23;2899988;82;21150;-62
2020/12/29 07:42:42;;;;;;;42.58;27.32;;;;;;;6.07;75.53;97455.45;2900312;82;21156;-62
2020/12/29 07:46:44;;;;;;;41.80;33.35;;;;;;;6.14;76.08;97448.52;2899893;82;21101;-63
2020/12/29 07:50:51;;;;;;;21.97;14.47;;;;;;;6.18;76.04;97457.73;2900177;82;21113;-64
2020/12/29 07:55:15;;;;;;;22.27;12.63;;;;;;;6.19;76.18;97457.25;2898354;82;21133;-62
2020/12/29 07:59:18;;;;;;;27.00;22.85;;;;;;;6.07;76.42;97469.46;2899672;80;21172;-65
2020/12/29 08:03:21;;;;;;;38.80;26.02;;;;;;;5.87;76.78;97483.47;2873072;82;21137;-63
2020/12/29 08:07:24;;;;;;;65.45;38.70;;;;;;;5.80;77.16;97485.13;2900219;82;21097;-62
2020/12/29 08:11:28;;;;;;;21.97;14.70;;;;;;;5.93;77.01;97492.55;2897060;82;21117;-61
2020/12/29 08:15:37;;;;;;;13.20;8.65;;;;;;;5.94;75.97;97491.56;2900511;82;21140;-63
2020/12/29 08:19:40;;;;;;;8.38;7.50;;;;;;;5.96;75.90;97487.75;2918043;81;21112;-62
2020/12/29 08:23:44;;;;;;;12.63;8.40;;;;;;;6.12;75.32;97488.77;2899626;80;21165;-62
2020/12/29 08:27:47;;;;;;;25.43;20.02;;;;;;;6.28;74.49;97502.44;2929645;80;21227;-63
2020/12/29 08:32:08;;;;;;;16.25;11.80;;;;;;;6.41;74.19;97505.91;2890704;82;21140;-63
2020/12/29 08:36:21;;;;;;;10.53;7.00;;;;;;;6.53;73.41;97509.02;2890821;82;21634;-63
2020/12/29 08:40:27;;;;;;;10.55;7.47;;;;;;;6.56;72.28;97508.16;2922783;80;21104;-63
2020/12/29 08:44:31;;;;;;;9.38;8.00;;;;;;;6.56;71.65;97511.31;2891030;82;21163;-63
2020/12/29 08:48:34;;;;;;;12.47;8.33;;;;;;;6.57;71.75;97520.38;2900076;82;21156;-63
2020/12/29 08:52:37;;;;;;;12.63;7.62;;;;;;;6.59;71.39;97518.91;2944492;80;21096;-66
2020/12/29 08:56:41;;;;;;;14.83;8.58;;;;;;;6.63;71.53;97537.38;2893150;82;21141;-64
2020/12/29 09:00:45;;;;;;;12.78;9.28;;;;;;;6.67;71.47;97549.25;2903917;80;21857;-64
2020/12/29 09:04:53;;;;;;;12.90;10.32;;;;;;;6.71;71.57;97558.51;2898670;82;21161;-62
2020/12/29 09:09:01;;;;;;;21.00;13.28;;;;;;;6.81;71.40;97572.02;2898437;82;21599;-64
2020/12/29 09:13:09;;;;;;;12.37;10.20;;;;;;;6.86;71.58;97578.45;2898298;82;21153;-65
2020/12/29 09:17:15;;;;;;;15.72;10.78;;;;;;;7.02;71.34;97576.77;2900450;82;21149;-66
2020/12/29 09:21:26;;;;;;;14.05;11.55;;;;;;;7.16;70.64;97575.23;2900288;82;21141;-64
2020/12/29 09:25:32;;;;;;;16.20;10.20;;;;;;;7.28;70.35;97569.91;2899592;82;21609;-61
2020/12/29 09:29:35;;;;;;;15.93;9.70;;;;;;;7.37;70.19;97589.69;2900193;81;21121;-63
2020/12/29 09:33:40;;;;;;;15.65;11.28;;;;;;;7.43;69.61;97598.25;2900894;80;21132;-62
2020/12/29 09:37:44;;;;;;;16.62;9.28;;;;;;;7.46;69.38;97598.42;2900163;82;21148;-63
2020/12/29 09:41:55;;;;;;;12.73;8.20;;;;;;;7.47;69.39;97606.67;2942437;79;21183;-63
2020/12/29 09:45:58;;;;;;;11.65;8.73;;;;;;;7.47;69.73;97614.13;2900330;82;21104;-65
2020/12/29 09:50:02;;;;;;;14.90;8.73;;;;;;;7.52;69.87;97622.84;2922472;79;21132;-61
2020/12/29 09:54:05;;;;;;;16.23;8.83;;;;;;;7.57;70.19;97635.89;2905750;81;21138;-63
2020/12/29 09:58:09;;;;;;;10.90;7.67;;;;;;;7.70;70.08;97634.53;2919001;81;21155;-61
2020/12/29 10:02:11;;;;;;;13.18;7.25;;;;;;;7.88;70.05;97630.80;2890204;80;21152;-61
2020/12/29 10:06:15;;;;;;;6.30;4.72;;;;;;;8.06;69.68;97639.30;2918312;80;21108;-62
2020/12/29 10:10:18;;;;;;;5.42;4.67;;;;;;;8.15;69.60;97636.08;2900190;81;21189;-62
2020/12/29 10:14:21;;;;;;;5.35;4.28;;;;;;;8.23;69.37;97641.82;2941666;80;21562;-62
2020/12/29 10:18:25;;;;;;;6.72;4.00;;;;;;;8.36;69.73;97659.29;2900596;82;21152;-62
2020/12/29 10:22:28;;;;;;;7.22;5.00;;;;;;;8.41;69.54;97651.63;2928406;79;21947;-63
2020/12/29 10:26:31;;;;;;;7.83;5.20;;;;;;;8.49;68.09;97660.53;2900379;82;21145;-64
2020/12/29 10:30:34;;;;;;;7.30;5.60;;;;;;;8.50;67.32;97666.19;2942741;79;21129;-64
2020/12/29 10:34:37;;;;;;;13.60;9.28;;;;;;;8.57;67.48;97664.47;2944967;79;21139;-63
2020/12/29 10:38:39;;;;;;;18.27;11.55;;;;;;;8.60;66.98;97660.13;2874665;82;21101;-64
2020/12/29 10:42:42;;;;;;;10.48;7.62;;;;;;;8.56;67.12;97668.95;2890524;80;21573;-63
2020/12/29 10:46:48;;;;;;;9.93;7.47;;;;;;;8.50;66.96;97654.27;2918275;80;21097;-61
2020/12/29 10:50:51;;;;;;;14.40;9.40;;;;;;;8.36;66.52;97655.31;2900100;82;21124;-62
2020/12/29 10:54:58;;;;;;;13.48;9.30;;;;;;;8.24;67.06;97660.68;2931382;79;21128;-63
2020/12/29 10:59:03;;;;;;;13.62;10.10;;;;;;;8.24;67.39;97667.30;2899820;80;21555;-62
2020/12/29 11:03:06;;;;;;;8.08;6.28;;;;;;;8.44;68.29;97682.25;2899758;80;21157;-62
2020/12/29 11:07:09;;;;;;;9.18;6.22;;;;;;;8.64;67.24;97679.16;2918107;81;21144;-63
2020/12/29 11:11:16;;;;;;;7.45;5.83;;;;;;;8.79;66.82;97686.66;2899780;80;21151;-65
2020/12/29 11:15:19;;;;;;;8.05;6.10;;;;;;;8.87;66.77;97676.50;2932389;79;21151;-64
2020/12/29 11:19:22;;;;;;;9.63;6.28;;;;;;;8.90;66.58;97690.72;2897231;80;21594;-64
2020/12/29 11:23:27;;;;;;;10.35;6.65;;;;;;;8.94;65.54;97692.48;2886669;80;21135;-64
2020/12/29 11:27:31;;;;;;;7.78;5.37;;;;;;;8.87;65.20;97704.33;2890141;80;21140;-64
2020/12/29 11:31:34;;;;;;;10.00;4.78;;;;;;;8.83;65.72;97708.31;2931931;79;21418;-64
2020/12/29 11:35:39;;;;;;;8.60;6.62;;;;;;;8.80;65.76;97715.30;2925697;79;21132;-63
2020/12/29 11:39:42;;;;;;;8.13;6.25;;;;;;;8.82;66.32;97715.95;2926117;79;21311;-63
2020/12/29 11:43:45;;;;;;;8.70;6.30;;;;;;;8.91;66.66;97723.34;2937838;79;21157;-64
2020/12/29 11:47:50;;;;;;;12.18;7.62;;;;;;;8.92;66.62;97731.61;2870191;81;21149;-63
2020/12/29 11:51:53;;;;;;;8.18;5.72;;;;;;;8.97;66.71;97748.64;2863146;81;21167;-63
2020/12/29 11:55:56;;;;;;;10.98;7.35;;;;;;;9.04;66.18;97756.72;2876570;81;21132;-64
2020/12/29 11:59:59;;;;;;;7.53;5.47;;;;;;;9.09;66.13;97777.41;2876558;82;21602;-64
2020/12/29 12:04:04;;;;;;;9.33;6.87;;;;;;;9.20;66.15;97782.27;2876496;81;21881;-65
2020/12/29 12:08:08;;;;;;;7.65;5.17;;;;;;;9.44;66.31;97779.09;2874909;81;21601;-65
2020/12/29 12:12:11;;;;;;;5.97;4.08;;;;;;;9.65;64.79;97789.52;2875764;81;21156;-67
2020/12/29 12:16:14;;;;;;;4.75;4.03;;;;;;;9.77;65.12;97792.02;2861069;81;21152;-66
2020/12/29 12:20:18;;;;;;;3.70;3.17;;;;;;;9.88;64.73;97792.08;2911480;81;21139;-68
2020/12/29 12:24:20;;;;;;;2.90;2.58;;;;;;;10.04;64.37;97795.07;2911032;81;21167;-67
2020/12/29 12:28:25;;;;;;;4.08;2.47;;;;;;;10.13;62.99;97798.46;2910993;81;21143;-66
2020/12/29 12:32:28;;;;;;;3.72;2.83;;;;;;;10.17;63.39;97809.52;2911352;80;21606;-66
2020/12/29 12:36:31;;;;;;;2.98;2.37;;;;;;;10.23;63.21;97821.56;2911687;81;21586;-67
2020/12/29 12:40:34;;;;;;;4.92;2.67;;;;;;;10.23;63.25;97828.21;2911632;81;21172;-66
2020/12/29 12:44:40;;;;;;;4.20;2.80;;;;;;;10.11;64.17;97839.80;2911341;80;21167;-66
2020/12/29 12:48:44;;;;;;;4.33;2.98;;;;;;;9.91;63.82;97832.06;2902387;81;21112;-65
2020/12/29 12:52:47;;;;;;;2.92;2.35;;;;;;;9.65;63.72;97837.30;2901982;81;21578;-67
2020/12/29 12:56:53;;;;;;;3.20;2.08;;;;;;;9.36;64.07;97837.52;2902181;82;21716;-66
2020/12/29 13:00:56;;;;;;;4.20;2.67;;;;;;;9.13;64.18;97846.31;2945864;80;21121;-67
2020/12/29 13:04:59;;;;;;;3.00;2.55;;;;;;;8.92;64.37;97847.78;2961926;79;21137;-66
2020/12/29 13:09:04;;;;;;;6.13;3.60;;;;;;;8.84;63.95;97846.00;2962498;79;21192;-66
2020/12/29 13:13:09;;;;;;;4.45;3.40;;;;;;;8.82;63.69;97846.68;2962297;80;21407;-65
2020/12/29 13:17:12;;;;;;;5.25;2.80;;;;;;;8.89;63.28;97857.41;2962600;80;21582;-64
2020/12/29 13:21:19;;;;;;;3.47;2.77;;;;;;;8.98;62.73;97849.72;2962270;79;21695;-66
2020/12/29 13:25:24;;;;;;;3.55;2.27;;;;;;;9.08;62.86;97860.10;2953086;79;21101;-60
2020/12/29 13:29:27;;;;;;;3.37;2.08;;;;;;;9.19;63.55;97854.08;2934962;80;21188;-63
2020/12/29 13:33:30;;;;;;;5.37;2.33;;;;;;;9.29;63.78;97871.41;2900550;82;21583;-61
2020/12/29 13:37:35;;;;;;;4.17;1.90;;;;;;;9.36;63.70;97885.28;2919599;79;21140;-61
2020/12/29 13:41:38;;;;;;;4.00;2.40;;;;;;;9.34;62.13;97891.27;2893960;82;21124;-59
2020/12/29 13:45:41;;;;;;;7.53;2.55;;;;;;;9.33;61.88;97894.92;2942668;79;21645;-60
2020/12/29 13:49:44;;;;;;;3.37;2.30;;;;;;;9.38;62.15;97901.84;2900735;82;21152;-59
2020/12/29 13:53:48;;;;;;;2.20;1.60;;;;;;;9.38;62.25;97906.67;2938873;79;21514;-60
2020/12/29 13:57:51;;;;;;;5.55;2.10;;;;;;;9.35;61.85;97909.67;2900611;82;21610;-58
2020/12/29 14:01:54;;;;;;;2.52;2.02;;;;;;;9.29;61.77;97915.18;2926582;80;21574;-59
2020/12/29 14:05:57;;;;;;;3.45;2.08;;;;;;;9.21;61.27;97924.50;2944387;80;21172;-59
2020/12/29 14:10:04;;;;;;;5.37;2.12;;;;;;;9.19;61.24;97929.16;2884475;80;21547;-59
2020/12/29 14:14:07;;;;;;;6.42;4.42;;;;;;;9.16;61.51;97937.98;2899448;80;21129;-61
2020/12/29 14:18:10;;;;;;;5.12;3.85;;;;;;;9.13;61.45;97941.80;2924212;79;21113;-60
2020/12/29 14:22:13;;;;;;;7.90;3.22;;;;;;;9.14;61.67;97942.97;2900565;80;21161;-61
2020/12/29 14:26:16;;;;;;;8.40;4.85;;;;;;;9.17;61.55;97940.96;2926844;79;21128;-59
2020/12/29 14:30:21;;;;;;;11.95;6.05;;;;;;;9.08;61.55;97952.11;2928214;79;21164;-60
2020/12/29 14:34:25;;;;;;;5.67;4.87;;;;;;;8.94;61.73;97955.81;2932774;79;22082;-61
2020/12/29 14:38:29;;;;;;;4.95;4.22;;;;;;;8.80;61.22;97959.17;2900273;80;21161;-60
2020/12/29 14:42:32;;;;;;;3.60;2.33;;;;;;;8.71;61.40;97965.84;2933938;79;21708;-63
2020/12/29 14:46:35;;;;;;;3.95;2.60;;;;;;;8.60;61.31;97971.50;2927975;79;21160;-61
2020/12/29 14:50:41;;;;;;;5.37;3.52;;;;;;;8.52;61.81;97967.56;2872752;80;21567;-61
2020/12/29 14:54:46;;;;;;;8.20;4.58;;;;;;;8.40;62.23;97973.17;2899203;80;21622;-61
2020/12/29 14:58:50;;;;;;;7.78;4.80;;;;;;;8.32;62.71;97982.47;2932622;79;21148;-61
2020/12/29 15:02:53;;;;;;;9.93;4.72;;;;;;;8.18;63.16;97989.77;2892102;80;21161;-60
2020/12/29 15:06:57;;;;;;;9.80;5.40;;;;;;;8.05;63.77;97998.22;2883346;80;21535;-61
2020/12/29 15:11:00;;;;;;;9.75;5.53;;;;;;;7.96;64.11;97998.71;2936179;79;21155;-61
2020/12/29 15:15:10;;;;;;;5.87;3.92;;;;;;;7.93;64.47;98012.28;2930520;79;21131;-60
2020/12/29 15:19:13;;;;;;;8.18;3.87;;;;;;;7.91;64.71;98020.37;2892175;80;21152;-60
2020/12/29 15:23:19;;;;;;;5.58;3.58;;;;;;;7.91;65.01;98030.97;2931146;79;22102;-62
2020/12/29 15:27:22;;;;;;;7.37;4.53;;;;;;;7.94;65.16;98034.60;2897863;80;21179;-61
2020/12/29 15:31:25;;;;;;;7.72;5.03;;;;;;;7.95;65.04;98036.77;2935222;79;21681;-61
2020/12/29 15:35:31;;;;;;;10.95;4.28;;;;;;;8.00;64.92;98029.16;2899549;80;21603;-61
2020/12/29 15:39:35;;;;;;;14.28;7.55;;;;;;;8.02;64.33;98025.84;2934973;79;21646;-62
2020/12/29 15:43:42;;;;;;;11.33;7.83;;;;;;;8.04;64.06;98034.95;2904161;80;21148;-63
2020/12/29 15:47:45;;;;;;;8.38;4.67;;;;;;;8.01;63.91;98046.69;2925592;79;21171;-62
2020/12/29 15:51:48;;;;;;;18.77;3.77;;;;;;;7.93;64.26;98059.42;2933955;79;21133;-61
2020/12/29 15:55:54;;;;;;;10.03;5.33;;;;;;;7.85;64.73;98069.50;2926585;80;21112;-63
2020/12/29 16:00:20;;;;;;;4.95;3.75;;;;;;;7.85;65.09;98081.41;2923045;79;21543;-62
2020/12/29 16:04:23;;;;;;;10.08;4.97;;;;;;;7.80;65.12;98083.72;2776558;85;21640;-60
2020/12/29 16:08:26;;;;;;;8.98;5.62;;;;;;;7.72;64.97;98088.50;2801090;82;21163;-60
2020/12/29 16:12:28;;;;;;;7.92;4.90;;;;;;;7.65;65.07;98094.59;2799253;82;21186;-60
2020/12/29 16:16:32;;;;;;;7.62;5.95;;;;;;;7.50;65.19;98099.20;2794090;82;21142;-61
2020/12/29 16:20:34;;;;;;;10.00;5.78;;;;;;;7.38;65.48;98115.86;2748347;84;21632;-60
2020/12/29 16:24:37;;;;;;;12.23;3.95;;;;;;;7.23;65.96;98131.97;2801892;82;21186;-59
2020/12/29 16:28:40;;;;;;;7.62;5.22;;;;;;;7.11;66.29;98136.70;2808917;82;21119;-61
2020/12/29 16:32:43;;;;;;;8.28;4.30;;;;;;;7.05;66.31;98146.56;2801978;82;21158;-60
2020/12/29 16:36:46;;;;;;;9.70;3.75;;;;;;;7.02;66.31;98144.23;2805574;81;21210;-59
2020/12/29 16:40:49;;;;;;;8.00;5.03;;;;;;;6.98;66.47;98146.38;2854392;81;21147;-59
2020/12/29 16:44:53;;;;;;;9.23;4.37;;;;;;;6.91;66.64;98150.13;2860650;81;21627;-59
2020/12/29 16:48:56;;;;;;;7.08;3.75;;;;;;;6.87;66.74;98151.41;2847268;81;21143;-59
2020/12/29 16:52:59;;;;;;;5.65;3.67;;;;;;;6.81;66.87;98161.28;2849668;81;21186;-60
2020/12/29 16:57:04;;;;;;;5.67;4.12;;;;;;;6.77;66.89;98177.11;2860189;81;21142;-60
2020/12/29 17:01:11;;;;;;;4.12;3.72;;;;;;;6.72;66.93;98181.52;2856711;81;21163;-58
2020/12/29 17:05:15;;;;;;;9.28;4.37;;;;;;;6.73;66.94;98193.75;2859074;81;21127;-59
2020/12/29 17:09:18;;;;;;;4.95;4.10;;;;;;;6.67;66.69;98204.43;2848445;81;21123;-60
2020/12/29 17:13:21;;;;;;;37.30;21.93;;;;;;;6.70;66.65;98216.05;2855057;81;21117;-59
2020/12/29 17:17:24;;;;;;;75.85;50.92;;;;;;;6.68;66.71;98224.62;2851704;81;21581;-59
2020/12/29 17:21:28;;;;;;;64.45;41.23;;;;;;;6.70;66.66;98230.58;2855593;81;21574;-60
2020/12/29 17:25:31;;;;;;;31.80;23.27;;;;;;;6.74;66.82;98244.80;2855982;81;21154;-60
2020/12/29 17:29:35;;;;;;;71.60;35.75;;;;;;;6.77;66.69;98249.78;2857525;81;21179;-59
2020/12/29 17:33:39;;;;;;;62.20;36.23;;;;;;;6.75;66.80;98254.39;2854031;81;21135;-58
2020/12/29 17:37:42;;;;;;;39.58;26.37;;;;;;;6.62;67.42;98260.86;2853321;81;21217;-60
2020/12/29 17:41:45;;;;;;;33.92;20.08;;;;;;;6.63;67.31;98253.28;2849128;81;21550;-60
2020/12/29 17:45:49;;;;;;;62.38;31.15;;;;;;;6.73;66.88;98262.45;2851113;82;21083;-58
2020/12/29 17:49:52;;;;;;;82.65;42.55;;;;;;;6.76;66.75;98270.58;2851623;81;21130;-61
2020/12/29 17:53:56;;;;;;;90.65;46.80;;;;;;;6.79;66.75;98275.55;2863820;81;21135;-61
2020/12/29 17:58:04;;;;;;;173.87;86.25;;;;;;;6.87;66.60;98282.23;2855409;82;21114;-61
2020/12/29 18:02:06;;;;;;;97.88;50.67;;;;;;;6.94;66.28;98285.95;2829885;81;21118;-60
2020/12/29 18:06:14;;;;;;;72.03;38.45;;;;;;;7.04;65.93;98285.86;2845934;81;21186;-61
2020/12/29 18:10:18;;;;;;;74.07;36.75;;;;;;;7.09;65.27;98296.80;2845775;81;21510;-61
2020/12/29 18:14:21;;;;;;;34.92;16.57;;;;;;;7.05;65.53;98311.31;2850064;81;21127;-61
2020/12/29 18:18:24;;;;;;;47.58;21.35;;;;;;;6.72;66.44;98325.53;2854758;83;21127;-59
2020/12/29 18:22:27;;;;;;;34.60;17.27;;;;;;;6.66;66.51;98340.16;2837069;81;21548;-61
2020/12/29 18:26:32;;;;;;;35.00;20.15;;;;;;;6.84;66.88;98352.09;2838682;81;21135;-61
2020/12/29 18:30:35;;;;;;;19.67;10.50;;;;;;;6.97;66.66;98358.33;2859214;82;21092;-61
2020/12/29 18:34:38;;;;;;;17.48;8.18;;;;;;;7.14;65.94;98366.42;2835601;81;21104;-61
2020/12/29 18:38:41;;;;;;;7.25;5.00;;;;;;;7.27;65.71;98376.14;2848891;81;21151;-63
2020/12/29 18:42:44;;;;;;;6.67;4.53;;;;;;;7.38;65.44;98378.20;2849260;81;21108;-63
2020/12/29 18:46:48;;;;;;;5.62;3.45;;;;;;;7.53;65.17;98388.58;2856235;81;21115;-62
2020/12/29 18:50:51;;;;;;;9.68;2.90;;;;;;;7.67;64.97;98396.45;2847911;81;21610;-62
2020/12/29 18:54:57;;;;;;;8.45;3.83;;;;;;;7.67;65.14;98407.05;2843104;81;21546;-62
2020/12/29 18:59:01;;;;;;;7.47;4.10;;;;;;;7.72;65.36;98410.56;2855332;81;21195;-61
2020/12/29 19:03:06;;;;;;;13.18;7.05;;;;;;;7.65;65.59;98418.75;2844157;81;21115;-62
2020/12/29 19:07:09;;;;;;;10.55;6.92;;;;;;;7.67;65.51;98435.34;2846915;81;21099;-61
2020/12/29 19:11:25;;;;;;;11.30;7.45;;;;;;;7.71;65.37;98433.53;2851218;81;21107;-62
2020/12/29 19:15:28;;;;;;;6.58;4.83;;;;;;;7.72;64.66;98441.81;2845563;81;21119;-62